Time;durP1;ratioP1;P1;durP2;ratioP2;P2;SDS_P1;SDS_P2;PMS_P1;PMS_P2;Temp;Humidity;BMP_temperature;BMP_pressure;BME280_temperature;BME280_humidity;BME280_pressure;Samples;Min_cycle;Max_cycle;Signal;HPM_P1;HPM_P2
2022/06/09 00:00:44;;;;;;;5.80;3.60;;;;;;;;;;10451583;28;20040;-76
2022/06/09 00:05:45;;;;;;;7.60;3.85;;;;;;;;;;10452362;28;20048;-77
2022/06/09 00:10:51;;;;;;;6.00;3.90;;;;;;;;;;10475136;28;20057;-73
2022/06/09 00:15:52;;;;;;;6.93;3.88;;;;;;;;;;10466555;28;20792;-74
2022/06/09 00:20:52;;;;;;;5.43;3.33;;;;;;;;;;10461939;28;20116;-75
2022/06/09 00:25:56;;;;;;;4.37;3.10;;;;;;;;;;10470637;28;20056;-73
2022/06/09 00:30:56;;;;;;;6.47;3.30;;;;;;;;;;10434305;28;20337;-74
2022/06/09 00:35:56;;;;;;;3.25;2.60;;;;;;;;;;10476373;28;20552;-74
2022/06/09 00:40:58;;;;;;;5.60;3.75;;;;;;;;;;10467795;28;20049;-75
2022/06/09 00:45:58;;;;;;;4.40;3.55;;;;;;;;;;10462229;28;20044;-74
2022/06/09 00:51:05;;;;;;;4.30;3.60;;;;;;;;;;10458929;28;20048;-75
2022/06/09 00:56:07;;;;;;;5.85;3.60;;;;;;;;;;10443824;28;20279;-75
2022/06/09 01:01:10;;;;;;;6.45;4.13;;;;;;;;;;10460088;28;20066;-75
2022/06/09 01:06:14;;;;;;;6.00;3.70;;;;;;;;;;10446830;28;20075;-75
2022/06/09 01:11:16;;;;;;;5.38;3.88;;;;;;;;;;10458685;28;20088;-76
2022/06/09 01:16:23;;;;;;;5.37;3.90;;;;;;;;;;10435995;28;20152;-77
2022/06/09 01:21:25;;;;;;;5.18;4.00;;;;;;;;;;10449771;28;20275;-76
2022/06/09 01:26:29;;;;;;;5.88;4.18;;;;;;;;;;10458224;28;20541;-75
2022/06/09 01:31:45;;;;;;;7.10;3.90;;;;;;;;;;10444394;28;20049;-76
2022/06/09 01:36:54;;;;;;;5.80;4.30;;;;;;;;;;10453524;28;20059;-75
2022/06/09 01:41:56;;;;;;;6.75;4.63;;;;;;;;;;10470365;28;20395;-76
2022/06/09 01:46:58;;;;;;;4.75;3.83;;;;;;;;;;10447835;28;20060;-74
2022/06/09 01:51:58;;;;;;;6.97;4.75;;;;;;;;;;10460894;28;20049;-75
2022/06/09 01:57:06;;;;;;;5.75;4.78;;;;;;;;;;10479891;28;20041;-75
2022/06/09 02:02:11;;;;;;;5.28;4.75;;;;;;;;;;10472536;28;20532;-76
2022/06/09 02:07:12;;;;;;;5.25;4.75;;;;;;;;;;10488023;28;20482;-75
2022/06/09 02:12:14;;;;;;;6.00;4.57;;;;;;;;;;10480039;28;20515;-75
2022/06/09 02:17:14;;;;;;;5.40;3.92;;;;;;;;;;10471830;28;20049;-76
2022/06/09 02:22:15;;;;;;;6.43;4.55;;;;;;;;;;10462258;28;20153;-75
2022/06/09 02:27:15;;;;;;;5.93;4.78;;;;;;;;;;10470588;28;20048;-75
2022/06/09 02:32:17;;;;;;;5.10;4.40;;;;;;;;;;10460821;28;20049;-74
2022/06/09 02:37:17;;;;;;;5.00;4.50;;;;;;;;;;10475949;28;20321;-74
2022/06/09 02:42:17;;;;;;;4.80;3.95;;;;;;;;;;10459407;28;20152;-75
2022/06/09 02:47:18;;;;;;;5.20;4.70;;;;;;;;;;10461100;28;20066;-75
2022/06/09 02:52:18;;;;;;;4.07;3.67;;;;;;;;;;10450307;28;20116;-75
2022/06/09 02:57:18;;;;;;;4.85;4.35;;;;;;;;;;10469204;28;20068;-73
2022/06/09 03:02:19;;;;;;;6.03;4.43;;;;;;;;;;10459733;28;20063;-75
2022/06/09 03:07:20;;;;;;;5.40;4.40;;;;;;;;;;10470699;28;20863;-75
2022/06/09 03:12:21;;;;;;;4.67;4.00;;;;;;;;;;10453841;28;20213;-74
2022/06/09 03:17:21;;;;;;;5.80;4.18;;;;;;;;;;10467424;28;20302;-75
2022/06/09 03:22:22;;;;;;;4.87;4.00;;;;;;;;;;10467580;28;20045;-75
2022/06/09 03:27:22;;;;;;;5.07;4.25;;;;;;;;;;10435239;28;20276;-77
2022/06/09 03:32:23;;;;;;;4.60;4.20;;;;;;;;;;10468561;28;20946;-75
2022/06/09 03:37:24;;;;;;;4.60;4.20;;;;;;;;;;10473829;28;20051;-74
2022/06/09 03:42:24;;;;;;;4.60;4.03;;;;;;;;;;10467969;28;20048;-74
2022/06/09 03:47:24;;;;;;;5.03;3.73;;;;;;;;;;10454935;28;20110;-75
2022/06/09 03:52:25;;;;;;;5.78;4.30;;;;;;;;;;10453248;28;20060;-74
2022/06/09 03:57:26;;;;;;;6.38;4.13;;;;;;;;;;10466636;28;20044;-73
2022/06/09 04:02:26;;;;;;;5.03;4.63;;;;;;;;;;10459835;28;20497;-74
2022/06/09 04:07:26;;;;;;;5.70;4.53;;;;;;;;;;10462833;28;20045;-76
2022/06/09 04:12:27;;;;;;;5.97;5.00;;;;;;;;;;10470712;28;20309;-75
2022/06/09 04:17:27;;;;;;;4.85;4.10;;;;;;;;;;10461656;28;20283;-75
2022/06/09 04:22:28;;;;;;;8.30;6.27;;;;;;;;;;10444734;28;20048;-77
2022/06/09 04:27:28;;;;;;;6.93;5.43;;;;;;;;;;10454417;28;20274;-75
2022/06/09 04:32:28;;;;;;;7.33;6.00;;;;;;;;;;10471937;28;20062;-74
2022/06/09 04:42:48;;;;;;;7.22;6.22;;;;;;;;;;10479052;28;20093;-75
2022/06/09 04:47:48;;;;;;;6.27;5.60;;;;;;;;;;10466652;28;20172;-73
2022/06/09 04:52:49;;;;;;;6.90;6.20;;;;;;;;;;10449070;28;20057;-73
2022/06/09 04:57:49;;;;;;;7.30;5.60;;;;;;;;;;10462559;28;20699;-74
2022/06/09 05:02:51;;;;;;;5.93;5.20;;;;;;;;;;10464668;28;20048;-75
2022/06/09 05:07:51;;;;;;;7.10;5.78;;;;;;;;;;10462637;28;20340;-75
2022/06/09 05:12:54;;;;;;;6.77;6.00;;;;;;;;;;10462898;28;20068;-76
2022/06/09 05:17:57;;;;;;;5.90;5.30;;;;;;;;;;10459782;28;20060;-75
2022/06/09 05:22:58;;;;;;;6.72;5.72;;;;;;;;;;10446107;28;20147;-76
2022/06/09 05:27:59;;;;;;;7.28;5.82;;;;;;;;;;10456355;28;20051;-77
2022/06/09 05:33:01;;;;;;;7.47;6.30;;;;;;;;;;10471764;28;20048;-76
2022/06/09 05:48:44;;;;;;;7.72;6.30;;;;;;;;;;10477964;28;20411;-77
2022/06/09 05:53:45;;;;;;;8.75;6.45;;;;;;;;;;10468397;28;20072;-75
2022/06/09 05:58:46;;;;;;;7.63;6.80;;;;;;;;;;10486012;28;20049;-75
2022/06/09 06:03:47;;;;;;;9.60;6.90;;;;;;;;;;10482248;28;20044;-75
2022/06/09 06:08:47;;;;;;;8.20;6.80;;;;;;;;;;10483690;28;20187;-78
2022/06/09 06:13:49;;;;;;;7.47;6.78;;;;;;;;;;10496844;28;20079;-78
2022/06/09 06:18:50;;;;;;;8.57;6.40;;;;;;;;;;10439160;28;20131;-75
2022/06/09 06:23:50;;;;;;;5.93;5.32;;;;;;;;;;10445985;28;20065;-75
2022/06/09 06:28:51;;;;;;;6.22;5.57;;;;;;;;;;10440872;28;20041;-75
2022/06/09 06:33:51;;;;;;;6.83;5.43;;;;;;;;;;10478867;28;20139;-74
2022/06/09 06:38:51;;;;;;;5.60;4.50;;;;;;;;;;10439797;28;20268;-74
2022/06/09 06:43:52;;;;;;;4.37;3.97;;;;;;;;;;10469813;28;20267;-75
2022/06/09 06:48:53;;;;;;;7.10;4.90;;;;;;;;;;10454968;28;20275;-76
2022/06/09 06:53:54;;;;;;;7.47;4.68;;;;;;;;;;10474519;28;20052;-75
2022/06/09 06:58:54;;;;;;;5.22;4.30;;;;;;;;;;10470085;28;20036;-77
2022/06/09 07:03:56;;;;;;;6.20;3.65;;;;;;;;;;10467753;28;20384;-76
2022/06/09 07:08:56;;;;;;;5.60;4.00;;;;;;;;;;10442868;28;20044;-75
2022/06/09 07:13:56;;;;;;;4.87;3.47;;;;;;;;;;10473160;28;20067;-74
2022/06/09 07:18:57;;;;;;;5.35;3.92;;;;;;;;;;10454273;28;20518;-74
2022/06/09 07:23:59;;;;;;;6.23;3.70;;;;;;;;;;10456299;28;20567;-74
2022/06/09 07:28:59;;;;;;;5.25;3.55;;;;;;;;;;10474885;28;20275;-77
2022/06/09 07:34:01;;;;;;;3.78;3.40;;;;;;;;;;10487554;28;20056;-76
2022/06/09 07:39:03;;;;;;;8.20;3.30;;;;;;;;;;10464359;28;20041;-77
2022/06/09 07:44:04;;;;;;;5.45;3.22;;;;;;;;;;10488180;28;20353;-77
2022/06/09 07:49:06;;;;;;;6.43;3.92;;;;;;;;;;10468647;28;20474;-77
2022/06/09 07:54:09;;;;;;;4.13;2.80;;;;;;;;;;10495991;28;20063;-79
2022/06/09 07:59:09;;;;;;;5.07;3.15;;;;;;;;;;10479595;28;20059;-78
2022/06/09 08:04:09;;;;;;;5.78;3.92;;;;;;;;;;10458906;28;20064;-79
2022/06/09 08:09:12;;;;;;;4.90;2.40;;;;;;;;;;10468278;28;20781;-77
2022/06/09 08:14:13;;;;;;;4.30;2.15;;;;;;;;;;10475994;28;20059;-79
2022/06/09 08:19:14;;;;;;;3.47;2.40;;;;;;;;;;10486806;28;20062;-77
2022/06/09 08:24:14;;;;;;;4.50;2.20;;;;;;;;;;10447097;28;20076;-77
2022/06/09 08:29:15;;;;;;;3.03;2.17;;;;;;;;;;10455763;28;20041;-80
2022/06/09 08:34:15;;;;;;;3.85;1.77;;;;;;;;;;10467104;28;20456;-75
2022/06/09 08:39:16;;;;;;;5.37;2.20;;;;;;;;;;10462630;28;20067;-73
2022/06/09 08:44:28;;;;;;;3.85;2.08;;;;;;;;;;10441221;28;20353;-77
2022/06/09 08:49:37;;;;;;;4.22;2.67;;;;;;;;;;10454854;28;20051;-77
2022/06/09 08:54:38;;;;;;;3.58;1.60;;;;;;;;;;10457788;28;20074;-77
2022/06/09 08:59:39;;;;;;;4.25;2.28;;;;;;;;;;10443605;28;20054;-77
2022/06/09 09:04:42;;;;;;;8.23;4.70;;;;;;;;;;10467440;28;20139;-74
2022/06/09 09:09:43;;;;;;;5.15;1.63;;;;;;;;;;10454222;28;20045;-74
2022/06/09 09:14:49;;;;;;;4.07;2.42;;;;;;;;;;10466187;28;20078;-75
2022/06/09 09:20:00;;;;;;;7.22;3.50;;;;;;;;;;10461128;28;20459;-74
2022/06/09 09:25:07;;;;;;;4.95;1.77;;;;;;;;;;10459408;28;20135;-73
2022/06/09 09:30:25;;;;;;;4.15;1.98;;;;;;;;;;10442796;28;20066;-74
2022/06/09 09:35:26;;;;;;;3.72;1.80;;;;;;;;;;10471339;28;20051;-72
2022/06/09 09:40:37;;;;;;;3.23;2.20;;;;;;;;;;10457778;28;20045;-76
2022/06/09 09:45:45;;;;;;;3.42;1.67;;;;;;;;;;10470825;28;20072;-78
2022/06/09 09:50:45;;;;;;;3.60;1.65;;;;;;;;;;10442277;28;20127;-79
2022/06/09 09:55:53;;;;;;;8.93;1.90;;;;;;;;;;10460317;28;20052;-76
2022/06/09 10:00:54;;;;;;;2.13;1.48;;;;;;;;;;10466124;28;20049;-76
2022/06/09 10:16:52;;;;;;;4.90;2.25;;;;;;;;;;10480909;28;20037;-77
2022/06/09 10:21:57;;;;;;;9.60;5.00;;;;;;;;;;10488482;28;20055;-80
2022/06/09 10:26:58;;;;;;;2.60;1.85;;;;;;;;;;10475212;28;20041;-77
2022/06/09 10:32:01;;;;;;;1.77;1.40;;;;;;;;;;10470054;28;20522;-76
2022/06/09 10:37:19;;;;;;;5.10;1.92;;;;;;;;;;10473249;28;20071;-77
2022/06/09 10:42:25;;;;;;;4.32;2.10;;;;;;;;;;10488789;28;20586;-73
2022/06/09 10:58:31;;;;;;;3.17;1.58;;;;;;;;;;10478615;28;20045;-73
2022/06/09 11:03:36;;;;;;;3.45;1.63;;;;;;;;;;10475164;28;20052;-74
2022/06/09 11:08:54;;;;;;;2.28;1.50;;;;;;;;;;10464208;28;20068;-75
2022/06/09 11:13:54;;;;;;;3.22;2.03;;;;;;;;;;10478345;28;20138;-75
2022/06/09 11:18:58;;;;;;;3.23;1.80;;;;;;;;;;10475739;28;20150;-75
2022/06/09 11:24:33;;;;;;;1.65;1.40;;;;;;;;;;10450900;28;20148;-76
2022/06/09 11:29:40;;;;;;;5.18;1.98;;;;;;;;;;10386434;28;20385;-75
2022/06/09 11:35:06;;;;;;;4.80;2.10;;;;;;;;;;10488903;28;20053;-77
2022/06/09 11:40:13;;;;;;;4.82;3.08;;;;;;;;;;10450141;28;20144;-76
2022/06/09 11:45:23;;;;;;;3.05;2.22;;;;;;;;;;10469769;28;20056;-77
2022/06/09 11:50:31;;;;;;;2.55;2.00;;;;;;;;;;10479668;28;20087;-78
2022/06/09 11:55:59;;;;;;;3.13;1.60;;;;;;;;;;10466482;28;20052;-74
2022/06/09 12:01:09;;;;;;;4.55;2.30;;;;;;;;;;10466047;28;20041;-76
2022/06/09 12:06:15;;;;;;;3.83;1.88;;;;;;;;;;10472177;28;20048;-74
2022/06/09 12:11:18;;;;;;;4.35;2.10;;;;;;;;;;10482844;28;20068;-76
2022/06/09 12:16:19;;;;;;;2.78;1.77;;;;;;;;;;10466040;28;20040;-76
2022/06/09 12:21:27;;;;;;;2.00;1.80;;;;;;;;;;10459477;28;20048;-74
2022/06/09 12:26:43;;;;;;;3.65;1.63;;;;;;;;;;10459292;28;20048;-76
2022/06/09 12:32:13;;;;;;;3.75;1.73;;;;;;;;;;10460380;28;20063;-74
2022/06/09 12:37:19;;;;;;;2.17;1.52;;;;;;;;;;10442056;28;20047;-75
2022/06/09 12:42:24;;;;;;;2.10;1.52;;;;;;;;;;10472111;28;20444;-75
2022/06/09 12:47:25;;;;;;;1.77;1.30;;;;;;;;;;10460721;28;20712;-75
2022/06/09 12:52:32;;;;;;;1.63;1.42;;;;;;;;;;10491662;28;20045;-74
2022/06/09 12:57:35;;;;;;;1.83;1.30;;;;;;;;;;10492275;28;20453;-73
2022/06/09 13:02:38;;;;;;;2.22;1.65;;;;;;;;;;10482300;28;20149;-73
2022/06/09 13:07:47;;;;;;;2.05;1.83;;;;;;;;;;10447416;28;20044;-73
2022/06/09 13:12:51;;;;;;;3.38;1.48;;;;;;;;;;10458787;28;20061;-73
2022/06/09 13:17:52;;;;;;;4.50;1.65;;;;;;;;;;10468723;28;20500;-73
2022/06/09 13:22:53;;;;;;;3.47;1.58;;;;;;;;;;10474480;28;20044;-74
2022/06/09 13:27:53;;;;;;;4.55;1.98;;;;;;;;;;10474223;28;20116;-73
2022/06/09 13:32:55;;;;;;;2.85;1.60;;;;;;;;;;10467099;28;20109;-72
2022/06/09 13:38:14;;;;;;;2.30;1.30;;;;;;;;;;10455816;28;20610;-72
2022/06/09 13:43:18;;;;;;;3.15;1.60;;;;;;;;;;10476714;28;20048;-75
2022/06/09 13:48:20;;;;;;;2.42;1.50;;;;;;;;;;10468957;28;20056;-75
2022/06/09 13:53:20;;;;;;;;;;;;;;;;;;10469857;28;20053;-77
2022/06/09 13:58:21;;;;;;;2.58;1.63;;;;;;;;;;10449319;28;19912;-77
2022/06/09 14:03:21;;;;;;;3.15;1.52;;;;;;;;;;10477559;28;20094;-75
2022/06/09 14:08:23;;;;;;;3.47;1.70;;;;;;;;;;10483944;28;20049;-76
2022/06/09 14:13:23;;;;;;;3.60;1.65;;;;;;;;;;10485896;28;20056;-75
2022/06/09 14:18:25;;;;;;;4.15;1.92;;;;;;;;;;10457309;28;20041;-77
2022/06/09 14:23:27;;;;;;;2.95;1.77;;;;;;;;;;10467451;28;20063;-76
2022/06/09 14:28:31;;;;;;;4.97;2.90;;;;;;;;;;10476040;28;20105;-77
2022/06/09 14:33:31;;;;;;;4.07;2.60;;;;;;;;;;10471184;28;20502;-76
2022/06/09 14:38:32;;;;;;;3.07;1.90;;;;;;;;;;10497463;28;20331;-75
2022/06/09 14:43:32;;;;;;;2.03;1.70;;;;;;;;;;10486441;28;20276;-77
2022/06/09 14:48:33;;;;;;;3.75;2.00;;;;;;;;;;10470336;28;20059;-76
2022/06/09 14:53:33;;;;;;;3.90;1.83;;;;;;;;;;10453326;28;20056;-77
2022/06/09 14:58:36;;;;;;;2.47;1.48;;;;;;;;;;10445283;28;20131;-76
2022/06/09 15:03:37;;;;;;;2.43;1.50;;;;;;;;;;10461463;28;20706;-76
2022/06/09 15:08:38;;;;;;;2.30;1.30;;;;;;;;;;10453913;28;20632;-76
2022/06/09 15:13:38;;;;;;;2.15;1.63;;;;;;;;;;10470639;28;20045;-77
2022/06/09 15:18:39;;;;;;;2.23;1.50;;;;;;;;;;10474101;28;20460;-76
2022/06/09 15:23:39;;;;;;;3.53;1.30;;;;;;;;;;10455725;28;20049;-73
2022/06/09 15:28:40;;;;;;;4.27;1.70;;;;;;;;;;10449702;28;20110;-76
2022/06/09 15:33:40;;;;;;;2.15;1.40;;;;;;;;;;10476102;28;20048;-76
2022/06/09 15:38:40;;;;;;;1.70;1.17;;;;;;;;;;10464744;28;20080;-76
2022/06/09 15:43:42;;;;;;;2.22;1.50;;;;;;;;;;10464225;28;20049;-73
2022/06/09 15:48:42;;;;;;;4.07;1.85;;;;;;;;;;10480981;28;20051;-75
2022/06/09 15:53:43;;;;;;;3.38;1.88;;;;;;;;;;10475294;28;20064;-75
2022/06/09 15:58:43;;;;;;;2.53;1.60;;;;;;;;;;10460613;28;20041;-75
2022/06/09 16:03:44;;;;;;;3.85;1.70;;;;;;;;;;10477532;28;20314;-74
2022/06/09 16:08:45;;;;;;;2.28;1.50;;;;;;;;;;10456294;28;20044;-75
2022/06/09 16:13:45;;;;;;;2.63;1.48;;;;;;;;;;10460237;28;20364;-72
2022/06/09 16:18:46;;;;;;;2.08;1.48;;;;;;;;;;10466330;28;20048;-73
2022/06/09 16:23:46;;;;;;;4.57;1.92;;;;;;;;;;10492529;28;20045;-80
2022/06/09 16:28:49;;;;;;;2.55;1.80;;;;;;;;;;10488600;28;20044;-78
2022/06/09 16:33:51;;;;;;;2.90;1.50;;;;;;;;;;10499349;28;20040;-80
2022/06/09 16:38:53;;;;;;;;;;;;;;;;;;10493142;28;20048;-79
2022/06/09 16:43:54;;;;;;;2.65;1.30;;;;;;;;;;10481525;28;20356;-78
2022/06/09 16:48:54;;;;;;;3.85;1.63;;;;;;;;;;10482796;28;20057;-77
2022/06/09 16:53:57;;;;;;;1.95;1.45;;;;;;;;;;10492527;28;20092;-76
2022/06/09 16:58:57;;;;;;;3.08;1.50;;;;;;;;;;10494207;28;20127;-78
2022/06/09 17:03:57;;;;;;;3.70;1.40;;;;;;;;;;10477190;28;20122;-77
2022/06/09 17:09:01;;;;;;;2.40;1.50;;;;;;;;;;10472317;28;20136;-79
2022/06/09 17:14:02;;;;;;;2.15;1.38;;;;;;;;;;10484565;28;20048;-78
2022/06/09 17:19:05;;;;;;;1.60;1.38;;;;;;;;;;10477099;28;20527;-77
2022/06/09 17:24:06;;;;;;;3.80;1.52;;;;;;;;;;10485868;28;20051;-76
2022/06/09 17:29:06;;;;;;;2.58;1.48;;;;;;;;;;10482552;28;20036;-77
2022/06/09 17:34:08;;;;;;;2.28;1.50;;;;;;;;;;10479426;28;20151;-78
2022/06/09 17:39:11;;;;;;;4.38;3.10;;;;;;;;;;10488940;28;20373;-83
2022/06/09 17:44:15;;;;;;;3.47;1.80;;;;;;;;;;10482893;28;20096;-78
2022/06/09 17:49:15;;;;;;;3.93;1.67;;;;;;;;;;10440992;28;20072;-78
2022/06/09 17:54:16;;;;;;;4.18;2.10;;;;;;;;;;10452238;28;20295;-79
2022/06/09 17:59:16;;;;;;;2.30;2.08;;;;;;;;;;10441288;28;20033;-80
2022/06/09 18:04:18;;;;;;;4.32;1.90;;;;;;;;;;10429071;28;20077;-82
2022/06/09 18:09:19;;;;;;;2.88;2.22;;;;;;;;;;10457541;28;20130;-80
2022/06/09 18:14:19;;;;;;;3.85;2.58;;;;;;;;;;10466738;28;20052;-85
2022/06/09 18:19:21;;;;;;;5.18;2.45;;;;;;;;;;10445799;28;20047;-80
2022/06/09 18:24:21;;;;;;;4.35;2.60;;;;;;;;;;10470044;28;20075;-80
2022/06/09 18:29:22;;;;;;;4.60;2.88;;;;;;;;;;10409814;28;20069;-82
2022/06/09 18:34:22;;;;;;;5.10;3.03;;;;;;;;;;10444486;28;20477;-81
2022/06/09 18:39:23;;;;;;;4.57;2.50;;;;;;;;;;10493709;28;20305;-79
2022/06/09 18:44:24;;;;;;;4.63;2.93;;;;;;;;;;10482417;28;20053;-79
2022/06/09 18:49:25;;;;;;;5.88;3.38;;;;;;;;;;10453647;28;20838;-81
2022/06/09 18:54:26;;;;;;;3.78;2.88;;;;;;;;;;10449452;28;20168;-79
2022/06/09 18:59:27;;;;;;;9.03;3.70;;;;;;;;;;10441288;28;20499;-79
2022/06/09 19:04:28;;;;;;;6.68;2.92;;;;;;;;;;10474650;28;20279;-80
2022/06/09 19:09:31;;;;;;;4.32;2.80;;;;;;;;;;10477913;28;20165;-80
2022/06/09 19:14:31;;;;;;;;;;;;;;;;;;10485991;28;20048;-79
2022/06/09 19:19:32;;;;;;;5.40;3.08;;;;;;;;;;10469872;28;19916;-77
2022/06/09 19:24:33;;;;;;;5.50;2.92;;;;;;;;;;10486886;28;20044;-78
2022/06/09 19:29:34;;;;;;;3.85;2.90;;;;;;;;;;10505922;28;20052;-79
2022/06/09 19:34:34;;;;;;;4.13;3.35;;;;;;;;;;10469360;28;20135;-76
2022/06/09 19:39:35;;;;;;;5.65;3.58;;;;;;;;;;10467086;28;20044;-76
2022/06/09 19:44:36;;;;;;;5.77;4.00;;;;;;;;;;10450115;28;20055;-78
2022/06/09 19:49:37;;;;;;;5.28;3.70;;;;;;;;;;10449819;28;20337;-78
2022/06/09 19:54:39;;;;;;;5.25;3.58;;;;;;;;;;10449917;28;20057;-79
2022/06/09 19:59:40;;;;;;;5.55;3.58;;;;;;;;;;10442261;28;20099;-78
2022/06/09 20:04:40;;;;;;;5.47;3.38;;;;;;;;;;10468803;28;20106;-78
2022/06/09 20:09:41;;;;;;;4.13;3.10;;;;;;;;;;10460791;28;20483;-77
2022/06/09 20:14:43;;;;;;;3.53;3.22;;;;;;;;;;10478812;28;20078;-79
2022/06/09 20:19:44;;;;;;;4.22;3.08;;;;;;;;;;10474095;28;20049;-78
2022/06/09 20:24:44;;;;;;;5.05;3.35;;;;;;;;;;10475332;28;20047;-78
2022/06/09 20:29:47;;;;;;;4.85;3.20;;;;;;;;;;10462189;28;20128;-79
2022/06/09 20:34:47;;;;;;;4.22;2.85;;;;;;;;;;10485852;28;20056;-78
2022/06/09 20:39:49;;;;;;;5.38;4.05;;;;;;;;;;10438687;28;20444;-78
2022/06/09 20:44:51;;;;;;;7.53;4.63;;;;;;;;;;10470597;28;20044;-81
2022/06/09 20:49:58;;;;;;;4.32;3.60;;;;;;;;;;10469247;28;20056;-78
2022/06/09 20:54:59;;;;;;;4.57;3.28;;;;;;;;;;10449164;28;20056;-80
2022/06/09 21:00:01;;;;;;;4.82;3.35;;;;;;;;;;10475925;28;20123;-79
2022/06/09 21:05:01;;;;;;;4.82;3.67;;;;;;;;;;10459663;28;20037;-79
2022/06/09 21:18:10;;;;;;;4.70;3.38;;;;;;;;;;10465361;28;20041;-79
2022/06/09 21:20:42;;;;;;;3.92;3.20;;;;;;;;;;10468130;28;20043;-79
2022/06/09 21:25:42;;;;;;;4.13;2.97;;;;;;;;;;10473853;28;20044;-77
2022/06/09 21:30:43;;;;;;;4.13;3.10;;;;;;;;;;10456783;28;20751;-77
2022/06/09 21:35:43;;;;;;;3.83;2.97;;;;;;;;;;10455527;28;20648;-77
2022/06/09 21:40:44;;;;;;;3.73;3.00;;;;;;;;;;10480601;28;20064;-76
2022/06/09 21:45:45;;;;;;;4.10;2.90;;;;;;;;;;10491239;28;20315;-78
2022/06/09 21:50:45;;;;;;;4.10;3.08;;;;;;;;;;10495855;28;20052;-77
2022/06/09 21:55:46;;;;;;;2.95;2.63;;;;;;;;;;10468331;28;20163;-77
2022/06/09 22:00:47;;;;;;;4.63;2.83;;;;;;;;;;10472476;28;20144;-78
2022/06/09 22:05:47;;;;;;;3.70;2.90;;;;;;;;;;10446193;28;20376;-81
2022/06/09 22:10:48;;;;;;;4.90;3.30;;;;;;;;;;10462792;28;20044;-78
2022/06/09 22:15:49;;;;;;;4.35;3.00;;;;;;;;;;10480117;28;20766;-77
2022/06/09 22:20:50;;;;;;;4.30;2.80;;;;;;;;;;10459175;28;20129;-76
2022/06/09 22:25:51;;;;;;;3.22;2.75;;;;;;;;;;10471900;28;20053;-77
2022/06/09 22:30:51;;;;;;;4.00;3.13;;;;;;;;;;10457782;28;20045;-77
2022/06/09 22:35:52;;;;;;;3.70;2.80;;;;;;;;;;10469186;28;20060;-77
2022/06/09 22:40:52;;;;;;;3.13;2.53;;;;;;;;;;10479681;28;20295;-75
2022/06/09 22:45:52;;;;;;;2.50;2.00;;;;;;;;;;10463998;28;20052;-77
2022/06/09 22:50:53;;;;;;;3.07;2.70;;;;;;;;;;10458708;28;20052;-76
2022/06/09 22:56:08;;;;;;;3.75;2.80;;;;;;;;;;10474954;28;20340;-76
2022/06/09 23:01:11;;;;;;;3.38;2.60;;;;;;;;;;10472404;28;20052;-77
2022/06/09 23:06:13;;;;;;;3.70;2.75;;;;;;;;;;10473705;28;20124;-79
2022/06/09 23:11:14;;;;;;;3.80;2.53;;;;;;;;;;10465159;28;20063;-77
2022/06/09 23:16:16;;;;;;;4.25;2.53;;;;;;;;;;10473129;28;20044;-80
2022/06/09 23:21:18;;;;;;;3.08;2.53;;;;;;;;;;10472345;28;20435;-78
2022/06/09 23:26:23;;;;;;;3.05;2.63;;;;;;;;;;10471822;28;20730;-80
2022/06/09 23:31:25;;;;;;;4.70;2.45;;;;;;;;;;10470130;28;20061;-83
2022/06/09 23:36:27;;;;;;;2.90;2.60;;;;;;;;;;10430910;28;20441;-79
2022/06/09 23:41:27;;;;;;;3.53;3.00;;;;;;;;;;10484836;28;20045;-78
2022/06/09 23:46:28;;;;;;;3.67;2.58;;;;;;;;;;10477138;28;20482;-78
2022/06/09 23:51:28;;;;;;;3.53;2.85;;;;;;;;;;10456700;28;20059;-77
2022/06/09 23:56:29;;;;;;;3.50;3.20;;;;;;;;;;10476060;28;20061;-79
